createdAt,value
2018-12-27T00:01:38.392Z,-2.65
2018-12-27T00:04:07.478Z,-2.63
2018-12-27T00:06:36.523Z,-2.63
2018-12-27T00:09:07.605Z,-2.62
2018-12-27T00:11:36.770Z,-2.64
2018-12-27T00:14:05.848Z,-2.71
2018-12-27T00:16:34.931Z,-2.78
2018-12-27T00:19:04.070Z,-2.83
2018-12-27T00:21:33.197Z,-2.88
2018-12-27T00:24:02.265Z,-2.72
2018-12-27T00:26:31.322Z,-2.66
2018-12-27T00:29:00.440Z,-2.65
2018-12-27T00:31:30.007Z,-2.55
2018-12-27T00:33:59.382Z,-2.49
2018-12-27T00:36:28.846Z,-2.50
2018-12-27T00:38:58.293Z,-2.50
2018-12-27T00:41:27.693Z,-2.47
2018-12-27T00:43:59.474Z,-2.49
2018-12-27T00:46:30.160Z,-2.44
2018-12-27T00:48:59.562Z,-2.45
2018-12-27T00:51:30.368Z,-2.45
2018-12-27T00:53:59.799Z,-2.45
2018-12-27T00:56:31.029Z,-2.46
2018-12-27T00:59:00.587Z,-2.48
2018-12-27T01:01:33.598Z,-2.46
2018-12-27T01:04:03.092Z,-2.42
2018-12-27T01:06:32.480Z,-2.33
2018-12-27T01:09:01.937Z,-2.30
2018-12-27T01:11:32.539Z,-2.30
2018-12-27T01:14:02.010Z,-2.55
2018-12-27T01:16:33.719Z,-2.64
2018-12-27T01:19:03.217Z,-2.92
2018-12-27T01:21:33.634Z,-2.86
2018-12-27T01:24:03.048Z,-2.89
2018-12-27T01:26:32.440Z,-2.60
2018-12-27T01:29:01.781Z,-2.68
2018-12-27T01:31:31.270Z,-2.71
2018-12-27T01:34:00.688Z,-2.68
2018-12-27T01:36:30.162Z,-2.54
2018-12-27T01:39:01.847Z,-2.53
2018-12-27T01:41:31.380Z,-2.37
2018-12-27T01:44:00.777Z,-2.39
2018-12-27T01:46:39.460Z,-2.42
2018-12-27T01:49:08.960Z,-2.59
2018-12-27T01:51:41.029Z,-2.47
2018-12-27T01:54:10.580Z,-2.42
2018-12-27T01:56:40.028Z,-2.41
2018-12-27T01:59:09.408Z,-2.70
2018-12-27T02:01:38.909Z,-2.33
2018-12-27T02:04:08.361Z,-2.74
2018-12-27T02:06:37.818Z,-2.79
2018-12-27T02:09:07.255Z,-2.91
2018-12-27T02:11:38.915Z,-2.76
2018-12-27T02:14:09.476Z,-2.63
2018-12-27T02:16:38.912Z,-2.90
2018-12-27T02:19:15.682Z,-3.08
2018-12-27T02:21:46.134Z,-2.82
2018-12-27T02:24:15.537Z,-2.97
2018-12-27T02:26:44.963Z,-2.84
2018-12-27T02:29:15.004Z,-2.80
2018-12-27T02:31:46.193Z,-2.47
2018-12-27T02:34:15.613Z,-2.29
2018-12-27T02:36:45.095Z,-2.45
2018-12-27T02:39:15.631Z,-2.41
2018-12-27T02:41:45.080Z,-2.22
2018-12-27T02:44:14.503Z,-2.34
2018-12-27T02:46:44.056Z,-2.62
2018-12-27T02:49:13.551Z,-2.41
2018-12-27T02:51:42.952Z,-2.21
2018-12-27T02:54:12.436Z,-2.15
2018-12-27T02:56:41.880Z,-2.18
2018-12-27T02:59:12.162Z,-2.47
2018-12-27T03:01:41.565Z,-2.34
2018-12-27T03:04:13.820Z,-2.36
2018-12-27T03:06:43.356Z,-2.29
2018-12-27T03:09:20.218Z,-2.50
2018-12-27T03:11:52.378Z,-2.64
2018-12-27T03:14:22.030Z,-2.70
2018-12-27T03:16:51.598Z,-2.40
2018-12-27T03:19:21.133Z,-2.29
2018-12-27T03:21:51.566Z,-2.42
2018-12-27T03:24:21.080Z,-2.34
2018-12-27T03:26:52.711Z,-2.59
2018-12-27T03:29:22.152Z,-2.24
2018-12-27T03:31:52.059Z,-2.70
2018-12-27T03:34:21.532Z,-2.62
2018-12-27T03:36:50.954Z,-2.27
2018-12-27T03:39:20.323Z,-2.13
2018-12-27T03:41:50.168Z,-2.20
2018-12-27T03:44:19.755Z,-2.16
2018-12-27T03:46:49.658Z,-2.20
2018-12-27T03:49:19.051Z,-2.56
2018-12-27T03:51:49.163Z,-2.29
2018-12-27T03:54:18.652Z,-2.39
2018-12-27T03:56:48.135Z,-2.36
2018-12-27T03:59:17.642Z,-2.27
2018-12-27T04:01:47.419Z,-2.20
2018-12-27T04:04:17.374Z,-2.52
2018-12-27T04:06:47.943Z,-2.57
2018-12-27T04:09:17.560Z,-2.43
2018-12-27T04:11:47.331Z,-2.31
2018-12-27T04:14:18.789Z,-2.21
2018-12-27T04:16:50.566Z,-3.11
2018-12-27T04:19:20.999Z,-2.24
2018-12-27T04:21:50.088Z,-2.26
2018-12-27T04:24:20.200Z,-2.31
2018-12-27T04:26:49.864Z,-2.33
2018-12-27T04:29:18.945Z,-2.33
2018-12-27T04:31:48.089Z,-2.32
2018-12-27T04:34:17.167Z,-2.31
2018-12-27T04:36:48.574Z,-2.28
2018-12-27T04:39:17.695Z,-2.29
2018-12-27T04:41:46.865Z,-2.31
2018-12-27T04:44:15.880Z,-2.30
2018-12-27T04:46:44.938Z,-2.37
2018-12-27T04:49:14.063Z,-2.48
2018-12-27T04:51:43.151Z,-2.76
2018-12-27T04:54:12.160Z,-2.88
2018-12-27T04:56:41.334Z,-3.05
2018-12-27T04:59:10.357Z,-3.05
2018-12-27T05:01:39.525Z,-2.86
2018-12-27T05:04:08.629Z,-2.60
2018-12-27T05:06:39.371Z,-2.76
2018-12-27T05:09:09.450Z,-3.03
2018-12-27T05:11:38.581Z,-2.74
2018-12-27T05:14:07.707Z,-2.80
2018-12-27T05:16:36.804Z,-2.60
2018-12-27T05:19:05.856Z,-2.88
2018-12-27T05:21:37.540Z,-2.60
2018-12-27T05:24:06.659Z,-2.75
2018-12-27T05:26:35.748Z,-2.90
2018-12-27T05:29:04.828Z,-3.09
2018-12-27T05:31:34.785Z,-2.89
2018-12-27T05:34:03.890Z,-3.35
2018-12-27T05:36:33.000Z,-3.12
2018-12-27T05:39:02.083Z,-2.74
2018-12-27T05:41:31.304Z,-2.79
2018-12-27T05:44:00.467Z,-2.65
2018-12-27T05:46:31.815Z,-2.73
2018-12-27T05:49:00.923Z,-2.65
2018-12-27T05:51:29.963Z,-2.53
2018-12-27T05:53:59.133Z,-2.56
2018-12-27T05:56:28.246Z,-2.62
2018-12-27T05:58:57.378Z,-2.56
2018-12-27T06:01:26.467Z,-2.65
2018-12-27T06:03:55.588Z,-2.69
2018-12-27T06:06:24.709Z,-2.64
2018-12-27T06:08:53.813Z,-3.04
2018-12-27T06:11:23.976Z,-3.15
2018-12-27T06:13:53.048Z,-3.05
2018-12-27T06:16:24.436Z,-2.97
2018-12-27T06:18:53.496Z,-3.06
2018-12-27T06:21:24.192Z,-2.92
2018-12-27T06:23:53.251Z,-2.70
2018-12-27T06:26:22.329Z,-2.62
2018-12-27T06:28:51.582Z,-3.09
2018-12-27T06:31:23.276Z,-2.51
2018-12-27T06:33:54.708Z,-2.36
2018-12-27T06:36:24.204Z,-2.59
2018-12-27T06:38:53.298Z,-2.78
2018-12-27T06:41:23.904Z,-2.38
2018-12-27T06:43:52.995Z,-2.93
2018-12-27T06:46:22.149Z,-2.90
2018-12-27T06:48:51.290Z,-2.51
2018-12-27T06:51:20.325Z,-2.58
2018-12-27T06:53:51.222Z,-2.42
2018-12-27T06:56:20.286Z,-2.46
2018-12-27T06:58:49.463Z,-2.84
2018-12-27T07:01:21.439Z,-2.87
2018-12-27T07:03:50.466Z,-3.00
2018-12-27T07:06:19.621Z,-2.74
2018-12-27T07:08:48.696Z,-2.84
2018-12-27T07:11:17.849Z,-3.03
2018-12-27T07:13:47.016Z,-3.05
2018-12-27T07:16:20.918Z,-2.88
2018-12-27T07:18:49.973Z,-2.64
2018-12-27T07:21:19.121Z,-2.48
2018-12-27T07:23:50.413Z,-2.94
2018-12-27T07:26:19.531Z,-2.67
2018-12-27T07:28:48.581Z,-2.85
2018-12-27T07:31:18.367Z,-3.05
2018-12-27T07:33:47.395Z,-2.97
2018-12-27T07:36:16.483Z,-2.78
2018-12-27T07:38:45.635Z,-2.63
2018-12-27T07:41:14.653Z,-2.78
2018-12-27T07:43:43.666Z,-2.90
2018-12-27T07:46:17.601Z,-2.80
2018-12-27T07:48:48.454Z,-2.55
2018-12-27T07:51:17.557Z,-2.58
2018-12-27T07:53:48.237Z,-2.81
2018-12-27T07:56:17.638Z,-2.82
2018-12-27T07:58:46.739Z,-2.82
2018-12-27T08:01:19.420Z,-2.65
2018-12-27T08:03:48.761Z,-2.36
2018-12-27T08:06:17.809Z,-2.53
2018-12-27T08:08:47.441Z,-2.45
2018-12-27T08:11:16.514Z,-2.11
2018-12-27T08:13:47.016Z,-2.46
2018-12-27T08:16:16.706Z,-2.50
2018-12-27T08:18:45.779Z,-2.35
2018-12-27T08:21:17.907Z,-2.35
2018-12-27T08:23:47.010Z,-2.36
2018-12-27T08:26:16.039Z,-2.39
2018-12-27T08:28:49.327Z,-2.59
2018-12-27T08:31:20.059Z,-2.76
2018-12-27T08:33:49.215Z,-2.95
2018-12-27T08:36:18.450Z,-2.66
2018-12-27T08:38:47.559Z,-2.07
2018-12-27T08:41:16.658Z,-2.20
2018-12-27T08:43:45.763Z,-2.03
2018-12-27T08:46:16.330Z,-2.01
2018-12-27T08:48:45.401Z,-2.17
2018-12-27T08:51:14.637Z,-2.11
2018-12-27T08:53:43.697Z,-2.28
2018-12-27T08:56:12.774Z,-1.32
2018-12-27T08:58:41.863Z,-1.71
2018-12-27T09:01:11.431Z,-1.47
2018-12-27T09:03:40.535Z,-1.98
2018-12-27T09:06:09.600Z,-1.76
2018-12-27T09:08:38.729Z,-1.63
2018-12-27T09:11:09.178Z,-2.15
2018-12-27T09:13:38.238Z,-1.76
2018-12-27T09:16:08.598Z,-1.49
2018-12-27T09:18:37.764Z,-1.21
2018-12-27T09:21:06.943Z,-0.98
2018-12-27T09:23:36.085Z,-0.64
2018-12-27T09:26:05.154Z,-1.18
2018-12-27T09:28:34.677Z,-0.66
2018-12-27T09:31:03.848Z,-0.56
2018-12-27T09:33:32.938Z,-0.53
2018-12-27T09:36:02.041Z,-0.48
2018-12-27T09:38:31.145Z,-0.50
2018-12-27T09:41:00.488Z,-0.57
2018-12-27T09:43:30.690Z,-0.18
2018-12-27T09:45:59.760Z,0.16
2018-12-27T09:48:28.801Z,0.13
2018-12-27T09:50:57.822Z,0.35
2018-12-27T09:53:27.650Z,0.28
2018-12-27T09:56:00.160Z,0.42
2018-12-27T09:58:29.234Z,0.83
2018-12-27T10:00:58.376Z,0.86
2018-12-27T10:03:30.660Z,1.03
2018-12-27T10:05:59.707Z,1.37
2018-12-27T10:08:28.842Z,0.39
2018-12-27T10:10:57.898Z,1.39
2018-12-27T10:13:26.947Z,1.60
2018-12-27T10:15:56.419Z,1.75
2018-12-27T10:18:27.326Z,1.63
2018-12-27T10:20:56.395Z,1.33
2018-12-27T10:23:25.959Z,1.55
2018-12-27T10:25:55.605Z,1.78
2018-12-27T10:28:26.819Z,1.31
2018-12-27T10:31:00.040Z,1.46
2018-12-27T10:33:29.982Z,1.58
2018-12-27T10:35:59.043Z,1.36
2018-12-27T10:38:31.144Z,1.69
2018-12-27T10:41:01.651Z,1.78
2018-12-27T10:43:32.052Z,2.20
2018-12-27T10:46:01.104Z,1.72
2018-12-27T10:48:30.235Z,1.79
2018-12-27T10:50:59.351Z,1.63
2018-12-27T10:53:28.376Z,1.86
2018-12-27T10:55:57.735Z,2.15
2018-12-27T10:58:26.959Z,2.23
2018-12-27T11:00:56.035Z,1.86
2018-12-27T11:03:30.460Z,2.18
2018-12-27T11:05:55.958Z,2.32
2018-12-27T11:08:25.016Z,2.22
2018-12-27T11:10:54.085Z,2.47
2018-12-27T11:13:23.096Z,2.17
2018-12-27T11:15:55.004Z,2.23
2018-12-27T11:18:24.121Z,2.49
2018-12-27T11:20:53.164Z,1.87
2018-12-27T11:23:22.288Z,2.49
2018-12-27T11:25:51.395Z,2.81
2018-12-27T11:28:20.492Z,2.76
2018-12-27T11:30:51.444Z,2.73
2018-12-27T11:33:22.653Z,2.40
2018-12-27T11:35:55.710Z,2.04
2018-12-27T11:38:22.787Z,1.92
2018-12-27T11:40:54.081Z,1.34
2018-12-27T11:43:24.438Z,2.11
2018-12-27T11:45:53.504Z,2.09
2018-12-27T11:48:22.709Z,2.27
2018-12-27T11:50:51.728Z,2.50
2018-12-27T11:53:22.483Z,2.79
2018-12-27T11:55:51.573Z,3.05
2018-12-27T11:58:20.669Z,2.86
2018-12-27T12:00:49.724Z,2.78
2018-12-27T12:03:18.801Z,3.09
2018-12-27T12:05:47.915Z,3.08
2018-12-27T12:08:17.977Z,3.19
2018-12-27T12:10:47.209Z,2.93
2018-12-27T12:13:17.270Z,3.19
2018-12-27T12:15:48.699Z,2.81
2018-12-27T12:18:17.900Z,2.69
2018-12-27T12:20:46.936Z,2.84
2018-12-27T12:23:15.997Z,2.94
2018-12-27T12:25:46.019Z,3.08
2018-12-27T12:28:17.452Z,2.96
2018-12-27T12:30:46.642Z,2.92
2018-12-27T12:33:19.239Z,2.93
2018-12-27T12:35:49.736Z,2.89
2018-12-27T12:38:18.847Z,2.79
2018-12-27T12:40:50.172Z,2.92
2018-12-27T12:43:20.201Z,2.68
2018-12-27T12:45:49.581Z,2.91
2018-12-27T12:48:18.660Z,3.08
2018-12-27T12:50:47.980Z,2.80
2018-12-27T12:53:17.171Z,2.30
2018-12-27T12:55:46.240Z,2.44
2018-12-27T12:58:15.374Z,2.41
2018-12-27T13:00:44.481Z,2.75
2018-12-27T13:03:13.580Z,2.58
2018-12-27T13:05:42.618Z,2.25
2018-12-27T13:08:13.461Z,2.68
2018-12-27T13:10:44.143Z,2.63
2018-12-27T13:13:13.337Z,2.86
2018-12-27T13:15:42.382Z,2.99
2018-12-27T13:18:11.552Z,2.97
2018-12-27T13:20:40.742Z,2.91
2018-12-27T13:23:10.162Z,2.68
2018-12-27T13:25:40.311Z,2.11
2018-12-27T13:28:12.581Z,1.68
2018-12-27T13:30:41.639Z,1.76
2018-12-27T13:33:10.920Z,2.27
2018-12-27T13:35:40.024Z,2.55
2018-12-27T13:38:09.167Z,2.32
2018-12-27T13:40:38.290Z,2.53
2018-12-27T13:43:07.328Z,2.21
2018-12-27T13:45:36.463Z,2.25
2018-12-27T13:48:05.621Z,2.56
2018-12-27T13:50:34.708Z,2.57
2018-12-27T13:53:03.833Z,2.54
2018-12-27T13:55:32.951Z,2.30
2018-12-27T13:58:05.124Z,2.60
2018-12-27T14:00:36.238Z,2.45
2018-12-27T14:03:06.353Z,2.41
2018-12-27T14:05:36.632Z,2.24
2018-12-27T14:08:05.730Z,2.26
2018-12-27T14:10:34.845Z,2.13
2018-12-27T14:13:04.022Z,2.15
2018-12-27T14:15:33.139Z,2.19
2018-12-27T14:18:02.183Z,2.13
2018-12-27T14:20:31.420Z,2.14
2018-12-27T14:23:00.445Z,1.88
2018-12-27T14:25:29.644Z,1.88
2018-12-27T14:27:59.289Z,1.82
2018-12-27T14:30:30.389Z,1.76
2018-12-27T14:32:59.825Z,1.77
2018-12-27T14:35:31.202Z,1.79
2018-12-27T14:38:00.268Z,1.76
2018-12-27T14:40:31.831Z,1.78
2018-12-27T14:43:02.130Z,1.79
2018-12-27T14:45:31.361Z,1.79
2018-12-27T14:48:00.485Z,1.69
2018-12-27T14:50:29.639Z,1.75
2018-12-27T14:52:58.712Z,1.77
2018-12-27T14:55:28.725Z,1.56
2018-12-27T14:57:59.667Z,1.56
2018-12-27T15:00:33.319Z,1.38
2018-12-27T15:03:03.395Z,1.47
2018-12-27T15:05:32.497Z,1.47
2018-12-27T15:08:03.533Z,1.52
2018-12-27T15:10:32.600Z,1.49
2018-12-27T15:13:01.728Z,1.38
2018-12-27T15:15:31.038Z,1.50
2018-12-27T15:18:01.821Z,1.47
2018-12-27T15:20:30.966Z,1.17
2018-12-27T15:23:02.448Z,1.15
2018-12-27T15:25:31.543Z,0.87
2018-12-27T15:28:02.134Z,0.98
2018-12-27T15:30:33.815Z,1.01
2018-12-27T15:33:02.833Z,1.08
2018-12-27T15:35:33.963Z,1.06
2018-12-27T15:38:04.483Z,1.03
2018-12-27T15:40:33.582Z,0.90
2018-12-27T15:43:03.744Z,0.82
2018-12-27T15:45:35.073Z,0.89
2018-12-27T15:48:05.569Z,0.76
2018-12-27T15:50:34.676Z,0.53
2018-12-27T15:53:03.827Z,0.54
2018-12-27T15:55:32.836Z,0.62
2018-12-27T15:58:01.871Z,0.68
2018-12-27T16:00:32.032Z,0.65
2018-12-27T16:03:01.181Z,0.64
2018-12-27T16:05:30.432Z,0.37
2018-12-27T16:07:59.596Z,0.50
2018-12-27T16:10:31.636Z,0.61
2018-12-27T16:13:00.765Z,0.67
2018-12-27T16:15:33.710Z,0.50
2018-12-27T16:18:12.195Z,0.62
2018-12-27T16:20:42.023Z,0.63
2018-12-27T16:23:11.461Z,0.68
2018-12-27T16:25:41.804Z,0.45
2018-12-27T16:28:14.557Z,0.48
2018-12-27T16:30:43.770Z,0.47
2018-12-27T16:33:13.101Z,0.20
2018-12-27T16:35:42.142Z,0.38
2018-12-27T16:38:12.786Z,0.48
2018-12-27T16:40:41.886Z,0.49
2018-12-27T16:43:13.344Z,0.38
2018-12-27T16:45:42.460Z,0.43
2018-12-27T16:48:13.121Z,0.51
2018-12-27T16:50:44.305Z,0.35
2018-12-27T16:53:13.545Z,0.19
2018-12-27T16:55:42.661Z,-0.05
2018-12-27T16:58:13.353Z,-0.18
2018-12-27T17:00:42.561Z,-0.08
2018-12-27T17:03:11.704Z,-0.02
2018-12-27T17:05:41.428Z,0.12
2018-12-27T17:08:10.827Z,-0.22
2018-12-27T17:10:39.902Z,-0.26
2018-12-27T17:13:12.538Z,-0.30
2018-12-27T17:15:41.639Z,-0.03
2018-12-27T17:18:11.096Z,0.11
2018-12-27T17:20:40.195Z,0.22
2018-12-27T17:23:09.282Z,0.48
2018-12-27T17:25:38.372Z,0.76
2018-12-27T17:28:07.418Z,0.74
2018-12-27T17:30:37.720Z,0.55
2018-12-27T17:33:06.772Z,0.63
2018-12-27T17:35:35.888Z,0.74
2018-12-27T17:38:04.949Z,1.13
2018-12-27T17:40:34.042Z,0.63
2018-12-27T17:43:03.098Z,0.20
2018-12-27T17:45:34.104Z,0.17
2018-12-27T17:48:03.197Z,0.40
2018-12-27T17:50:33.751Z,0.44
2018-12-27T17:53:02.936Z,0.49
2018-12-27T17:55:32.030Z,0.58
2018-12-27T17:58:01.146Z,0.62
2018-12-27T18:00:30.185Z,0.94
2018-12-27T18:02:59.283Z,0.76
2018-12-27T18:05:28.341Z,0.69
2018-12-27T18:07:57.430Z,0.54
2018-12-27T18:10:26.601Z,0.52
2018-12-27T18:12:55.711Z,0.51
2018-12-27T18:15:24.776Z,0.47
2018-12-27T18:17:53.880Z,0.42
2018-12-27T18:20:24.486Z,0.53
2018-12-27T18:22:53.611Z,0.41
2018-12-27T18:25:22.680Z,0.37
2018-12-27T18:27:51.830Z,0.35
2018-12-27T18:30:20.913Z,0.36
2018-12-27T18:32:50.050Z,0.50
2018-12-27T18:35:19.036Z,0.40
2018-12-27T18:37:51.387Z,0.45
2018-12-27T18:40:22.224Z,0.43
2018-12-27T18:42:51.285Z,0.40
2018-12-27T18:45:20.327Z,0.45
2018-12-27T18:47:49.441Z,0.43
2018-12-27T18:50:18.466Z,0.55
2018-12-27T18:52:47.622Z,0.49
2018-12-27T18:55:20.134Z,0.42
2018-12-27T18:57:47.584Z,0.29
2018-12-27T19:00:16.687Z,0.12
2018-12-27T19:02:48.145Z,0.07
2018-12-27T19:05:17.183Z,-0.11
2018-12-27T19:07:46.247Z,0.00
2018-12-27T19:10:15.299Z,-0.28
2018-12-27T19:13:04.252Z,0.06
2018-12-27T19:15:36.237Z,-0.05
2018-12-27T19:18:37.459Z,0.09
2018-12-27T19:21:43.863Z,0.27
2018-12-27T19:24:14.953Z,0.23
2018-12-27T19:26:46.229Z,-0.27
2018-12-27T19:29:15.367Z,-0.07
2018-12-27T19:31:44.463Z,0.07
2018-12-27T19:34:15.608Z,0.24
2018-12-27T19:36:46.042Z,-0.16
2018-12-27T19:39:15.195Z,-0.26
2018-12-27T19:41:44.269Z,-0.24
2018-12-27T19:44:13.352Z,0.02
2018-12-27T19:46:44.410Z,-0.05
2018-12-27T19:49:13.564Z,-0.19
2018-12-27T19:51:42.695Z,-0.04
2018-12-27T19:54:13.662Z,-0.02
2018-12-27T19:56:44.062Z,-0.23
2018-12-27T19:59:17.307Z,0.08
2018-12-27T20:01:46.443Z,-0.34
2018-12-27T20:04:15.558Z,-0.38
2018-12-27T20:06:45.915Z,-0.10
2018-12-27T20:09:14.987Z,-0.02
2018-12-27T20:11:44.129Z,-0.06
2018-12-27T20:14:13.277Z,0.10
2018-12-27T20:16:42.362Z,0.19
2018-12-27T20:19:11.547Z,0.20
2018-12-27T20:21:42.331Z,0.29
2018-12-27T20:24:11.583Z,0.34
2018-12-27T20:26:40.729Z,-0.01
2018-12-27T20:29:10.890Z,-0.07
2018-12-27T20:31:40.315Z,0.11
2018-12-27T20:34:12.005Z,0.12
2018-12-27T20:36:42.523Z,0.31
2018-12-27T20:39:11.668Z,0.31
2018-12-27T20:41:40.869Z,0.54
2018-12-27T20:44:12.327Z,0.18
2018-12-27T20:46:42.728Z,0.12
2018-12-27T20:49:13.038Z,0.35
2018-12-27T20:51:41.930Z,0.37
2018-12-27T20:54:12.191Z,0.37
2018-12-27T20:56:41.342Z,0.33
2018-12-27T20:59:11.271Z,0.39
2018-12-27T21:01:40.357Z,0.48
2018-12-27T21:04:11.098Z,0.52
2018-12-27T21:06:40.350Z,0.48
2018-12-27T21:09:09.451Z,0.44
2018-12-27T21:11:38.494Z,0.24
2018-12-27T21:14:07.569Z,0.35
2018-12-27T21:16:36.750Z,0.26
2018-12-27T21:19:05.873Z,-0.19
2018-12-27T21:21:35.048Z,-0.34
2018-12-27T21:24:04.105Z,-0.06
2018-12-27T21:26:33.165Z,-0.12
2018-12-27T21:29:02.269Z,0.02
2018-12-27T21:31:32.338Z,0.15
2018-12-27T21:34:01.395Z,0.25
2018-12-27T21:36:30.491Z,0.32
2018-12-27T21:38:59.636Z,0.26
2018-12-27T21:41:28.708Z,0.07
2018-12-27T21:43:57.846Z,0.05
2018-12-27T21:46:26.917Z,0.05
2018-12-27T21:48:56.123Z,0.05
2018-12-27T21:51:25.247Z,-0.01
2018-12-27T21:53:55.419Z,-0.17
2018-12-27T21:56:24.559Z,-0.06
2018-12-27T21:58:53.626Z,0.04
2018-12-27T22:01:22.747Z,0.07
2018-12-27T22:03:51.865Z,-0.07
2018-12-27T22:06:20.937Z,0.05
2018-12-27T22:08:50.067Z,-0.22
2018-12-27T22:11:19.110Z,-0.08
2018-12-27T22:13:48.252Z,0.11
2018-12-27T22:16:17.395Z,-0.13
2018-12-27T22:18:48.091Z,-0.36
2018-12-27T22:21:17.152Z,-0.38
2018-12-27T22:23:46.338Z,-0.22
2018-12-27T22:26:15.386Z,-0.41
2018-12-27T22:28:45.626Z,-0.11
2018-12-27T22:31:15.979Z,0.00
2018-12-27T22:33:45.079Z,0.05
2018-12-27T22:36:16.467Z,0.08
2018-12-27T22:38:47.104Z,0.07
2018-12-27T22:41:16.285Z,0.04
2018-12-27T22:43:45.376Z,-0.18
2018-12-27T22:46:14.409Z,-0.05
2018-12-27T22:48:43.494Z,0.00
2018-12-27T22:51:12.792Z,-0.27
2018-12-27T22:53:43.874Z,-0.52
2018-12-27T22:56:14.085Z,-0.21
2018-12-27T22:58:43.278Z,-0.01
2018-12-27T23:01:12.839Z,0.00
2018-12-27T23:03:41.945Z,0.09
2018-12-27T23:06:11.073Z,-0.43
2018-12-27T23:08:43.211Z,-0.14
2018-12-27T23:11:13.674Z,-0.33
2018-12-27T23:13:42.715Z,-0.29
2018-12-27T23:16:11.822Z,-0.41
2018-12-27T23:18:43.720Z,-0.13
2018-12-27T23:21:15.104Z,-0.04
2018-12-27T23:23:46.448Z,0.02
2018-12-27T23:26:15.616Z,-0.02
2018-12-27T23:28:48.016Z,-0.21
2018-12-27T23:31:18.352Z,-0.03
2018-12-27T23:33:47.397Z,0.00
2018-12-27T23:36:17.292Z,-0.06
2018-12-27T23:38:50.391Z,0.06
2018-12-27T23:41:18.377Z,0.16
2018-12-27T23:43:47.473Z,0.20
2018-12-27T23:46:16.578Z,0.14
2018-12-27T23:48:45.645Z,0.06
2018-12-27T23:51:14.710Z,0.15
2018-12-27T23:53:43.797Z,0.18
2018-12-27T23:56:15.368Z,0.17
2018-12-27T23:58:44.421Z,0.09
